Time;durP1;ratioP1;P1;durP2;ratioP2;P2;SDS_P1;SDS_P2;PMS_P1;PMS_P2;Temp;Humidity;BMP_temperature;BMP_pressure;BME280_temperature;BME280_humidity;BME280_pressure;Samples;Min_cycle;Max_cycle;Signal;HPM_P1;HPM_P2
2024/03/01 00:03:38;;;;;;;7.30;4.27;;;;;9.60;99554.00;;;;10370204;28;20256;-78
2024/03/01 00:08:40;;;;;;;6.87;4.03;;;;;9.60;99550.00;;;;10357301;28;20226;-77
2024/03/01 00:13:42;;;;;;;4.23;3.83;;;;;9.60;99541.00;;;;10369151;28;20229;-76
2024/03/01 00:18:43;;;;;;;5.40;3.93;;;;;9.60;99549.00;;;;10339515;28;20218;-77
2024/03/01 00:23:45;;;;;;;5.50;4.23;;;;;9.70;99547.00;;;;10345827;28;20276;-76
2024/03/01 00:28:46;;;;;;;5.33;4.23;;;;;9.70;99539.00;;;;10380117;28;20628;-82
2024/03/01 00:33:47;;;;;;;5.13;4.60;;;;;9.70;99545.00;;;;10344304;28;20234;-82
2024/03/01 00:38:48;;;;;;;5.83;3.83;;;;;9.70;99540.00;;;;10351049;28;20862;-82
2024/03/01 00:43:49;;;;;;;5.03;4.20;;;;;9.70;99531.00;;;;10362184;28;20222;-82
2024/03/01 00:48:53;;;;;;;3.87;3.50;;;;;9.80;99534.00;;;;10383061;28;20306;-82
2024/03/01 00:53:55;;;;;;;4.70;3.30;;;;;9.80;99518.00;;;;10385021;28;20230;-82
2024/03/01 00:58:56;;;;;;;5.10;3.60;;;;;9.80;99515.00;;;;10374416;28;20227;-82
2024/03/01 01:03:57;;;;;;;4.63;4.23;;;;;9.80;99510.00;;;;10394054;28;20252;-83
2024/03/01 01:08:58;;;;;;;5.03;3.97;;;;;9.80;99510.00;;;;10373039;28;20217;-82
2024/03/01 01:13:59;;;;;;;5.17;4.40;;;;;9.80;99516.00;;;;10363686;28;20218;-83
2024/03/01 01:19:02;;;;;;;5.07;3.97;;;;;9.80;99511.00;;;;10378315;28;20250;-82
2024/03/01 01:24:04;;;;;;;7.23;3.70;;;;;9.80;99509.00;;;;10375914;28;20218;-82
2024/03/01 01:29:05;;;;;;;8.60;4.50;;;;;9.80;99512.00;;;;10372923;28;20311;-83
2024/03/01 01:34:06;;;;;;;5.93;3.63;;;;;9.70;99506.00;;;;10402480;28;20696;-83
2024/03/01 01:39:07;;;;;;;4.67;3.50;;;;;9.60;99514.00;;;;10387644;28;20226;-78
2024/03/01 01:44:09;;;;;;;4.37;3.77;;;;;9.50;99512.00;;;;10381877;28;20714;-80
2024/03/01 01:49:10;;;;;;;1.33;1.23;;;;;9.20;99598.00;;;;10393739;28;20284;-79
2024/03/01 01:54:12;;;;;;;0.60;0.57;;;;;7.90;99595.00;;;;10363920;28;20223;-80
2024/03/01 01:59:14;;;;;;;1.10;0.80;;;;;7.20;99607.00;;;;10358154;28;20309;-81
2024/03/01 02:04:15;;;;;;;1.07;0.73;;;;;6.80;99611.00;;;;10363574;28;20261;-88
2024/03/01 02:09:20;;;;;;;1.23;0.80;;;;;6.70;99608.00;;;;10383325;28;20231;-88
2024/03/01 02:14:21;;;;;;;2.17;0.80;;;;;6.50;99610.00;;;;10376640;28;20242;-84
2024/03/01 02:19:22;;;;;;;1.20;1.10;;;;;6.60;99626.00;;;;10374121;28;20281;-88
2024/03/01 02:24:23;;;;;;;1.40;1.30;;;;;6.60;99637.00;;;;10369407;28;20265;-87
2024/03/01 02:29:24;;;;;;;1.70;1.53;;;;;6.60;99641.00;;;;10372675;28;20238;-88
2024/03/01 02:34:26;;;;;;;1.30;1.20;;;;;6.50;99645.00;;;;10368223;28;20255;-87
2024/03/01 02:39:27;;;;;;;1.70;1.60;;;;;6.50;99647.00;;;;10383521;28;20880;-87
2024/03/01 02:44:28;;;;;;;2.07;1.70;;;;;6.50;99642.00;;;;10361931;28;20215;-86
2024/03/01 02:49:30;;;;;;;3.57;2.00;;;;;6.40;99650.00;;;;10373326;28;20333;-87
2024/03/01 02:54:31;;;;;;;4.80;1.80;;;;;6.40;99661.00;;;;10378027;28;20257;-85
2024/03/01 02:59:32;;;;;;;2.33;2.13;;;;;6.30;99662.00;;;;10412897;28;20214;-85
2024/03/01 03:04:33;;;;;;;4.77;2.93;;;;;6.30;99682.00;;;;10401590;28;20223;-86
2024/03/01 03:09:34;;;;;;;3.53;3.07;;;;;6.30;99675.00;;;;10397897;28;20218;-86
2024/03/01 03:14:36;;;;;;;5.03;2.73;;;;;6.30;99677.00;;;;10373978;28;20215;-86
2024/03/01 03:19:37;;;;;;;3.13;2.83;;;;;6.30;99694.00;;;;10367707;28;20238;-77
2024/03/01 03:24:39;;;;;;;6.17;3.43;;;;;6.30;99689.00;;;;10362843;28;20230;-76
2024/03/01 03:29:40;;;;;;;4.70;3.90;;;;;6.20;99693.00;;;;10386273;28;20286;-78
2024/03/01 03:34:41;;;;;;;4.20;3.80;;;;;6.20;99707.00;;;;10351784;28;20222;-77
2024/03/01 03:39:42;;;;;;;5.70;4.10;;;;;6.20;99709.00;;;;10389729;28;20223;-77
2024/03/01 03:44:43;;;;;;;7.07;4.53;;;;;6.20;99722.00;;;;10396760;28;20210;-78
2024/03/01 03:49:48;;;;;;;6.83;4.27;;;;;6.10;99727.00;;;;10398829;28;20294;-78
2024/03/01 03:54:49;;;;;;;8.87;5.07;;;;;6.10;99727.00;;;;10374551;28;20215;-78
2024/03/01 03:59:50;;;;;;;6.67;5.60;;;;;6.10;99727.00;;;;10363275;28;20242;-76
2024/03/01 04:04:51;;;;;;;12.87;6.47;;;;;6.10;99730.00;;;;10379578;28;20589;-77
2024/03/01 04:09:52;;;;;;;12.50;7.60;;;;;6.10;99741.00;;;;10391857;28;21274;-77
2024/03/01 04:14:53;;;;;;;15.40;9.53;;;;;6.00;99741.00;;;;10392966;28;20264;-78
2024/03/01 04:19:55;;;;;;;15.70;10.27;;;;;5.90;99753.00;;;;10359322;28;20252;-77
2024/03/01 04:24:56;;;;;;;15.90;8.70;;;;;5.80;99752.00;;;;10358551;28;20222;-76
2024/03/01 04:29:57;;;;;;;16.00;9.33;;;;;5.70;99753.00;;;;10376395;28;20291;-77
2024/03/01 04:34:58;;;;;;;17.20;7.87;;;;;5.70;99764.00;;;;10393764;28;20229;-80
2024/03/01 04:40:01;;;;;;;11.80;8.43;;;;;5.70;99768.00;;;;10369007;28;20227;-79
2024/03/01 04:45:02;;;;;;;14.63;8.93;;;;;5.70;99773.00;;;;10374707;28;20632;-79
2024/03/01 04:50:05;;;;;;;12.50;8.37;;;;;5.70;99770.00;;;;10404873;28;20215;-78
2024/03/01 04:55:09;;;;;;;13.57;8.33;;;;;5.60;99782.00;;;;10371732;28;20800;-79
2024/03/01 05:00:14;;;;;;;13.03;9.23;;;;;5.60;99777.00;;;;10398630;28;20230;-80
2024/03/01 05:05:15;;;;;;;12.23;8.90;;;;;5.60;99779.00;;;;10389253;28;20682;-78
2024/03/01 05:10:22;;;;;;;12.47;8.40;;;;;5.60;99771.00;;;;10357300;28;20894;-77
2024/03/01 05:15:24;;;;;;;12.00;7.13;;;;;5.50;99797.00;;;;10373303;28;20215;-79
2024/03/01 05:20:25;;;;;;;13.80;9.00;;;;;5.30;99798.00;;;;10376997;28;20229;-78
2024/03/01 05:25:26;;;;;;;12.17;7.87;;;;;5.20;99794.00;;;;10390143;28;20226;-78
2024/03/01 05:30:27;;;;;;;15.13;7.90;;;;;5.10;99800.00;;;;10370913;28;20223;-78
2024/03/01 05:35:47;;;;;;;13.53;9.07;;;;;5.10;99795.00;;;;10373392;28;20222;-78
2024/03/01 05:40:49;;;;;;;16.33;8.83;;;;;5.10;99798.00;;;;10385156;28;20219;-77
2024/03/01 05:45:57;;;;;;;12.77;8.80;;;;;5.00;99796.00;;;;10375146;28;20247;-77
2024/03/01 05:50:59;;;;;;;11.80;8.40;;;;;5.10;99799.00;;;;10382256;28;20573;-79
2024/03/01 05:56:01;;;;;;;17.17;8.00;;;;;5.10;99801.00;;;;10394229;28;20218;-77
2024/03/01 06:01:04;;;;;;;15.43;9.43;;;;;5.00;99794.00;;;;10381241;28;20250;-78
2024/03/01 06:06:07;;;;;;;13.90;8.37;;;;;4.90;99797.00;;;;10402478;28;20221;-78
2024/03/01 06:11:08;;;;;;;13.83;7.13;;;;;4.80;99799.00;;;;10392349;28;20211;-78
2024/03/01 06:16:09;;;;;;;12.77;7.50;;;;;4.70;99802.00;;;;10394176;28;20926;-77
2024/03/01 06:21:19;;;;;;;10.97;7.23;;;;;4.70;99797.00;;;;10383477;28;20234;-79
2024/03/01 06:26:22;;;;;;;15.43;6.97;;;;;4.60;99782.00;;;;10397538;28;20309;-78
2024/03/01 06:31:23;;;;;;;14.37;8.37;;;;;4.60;99788.00;;;;10378622;28;20218;-77
2024/03/01 06:36:24;;;;;;;16.33;7.00;;;;;4.60;99785.00;;;;10363753;28;20222;-77
2024/03/01 06:41:25;;;;;;;19.37;8.00;;;;;4.60;99779.00;;;;10400654;28;20245;-78
2024/03/01 06:46:27;;;;;;;19.13;5.93;;;;;4.60;99786.00;;;;10382906;28;20620;-82
2024/03/01 06:51:29;;;;;;;12.43;6.50;;;;;4.60;99783.00;;;;10387269;28;20223;-83
2024/03/01 06:56:30;;;;;;;14.10;6.37;;;;;4.70;99783.00;;;;10398013;28;20893;-82
2024/03/01 07:01:31;;;;;;;14.03;6.17;;;;;4.80;99771.00;;;;10383137;28;20221;-82
2024/03/01 07:06:33;;;;;;;14.53;6.43;;;;;4.90;99781.00;;;;10371794;28;20233;-83
2024/03/01 07:11:35;;;;;;;12.67;5.27;;;;;5.10;99774.00;;;;10383067;28;20300;-82
2024/03/01 07:16:36;;;;;;;10.23;5.37;;;;;5.20;99781.00;;;;10366527;28;20222;-82
2024/03/01 07:21:37;;;;;;;12.20;5.67;;;;;5.30;99778.00;;;;10373058;28;20754;-82
2024/03/01 07:26:38;;;;;;;9.30;5.53;;;;;5.50;99778.00;;;;10389613;28;20223;-82
2024/03/01 07:31:39;;;;;;;7.13;4.87;;;;;5.70;99775.00;;;;10402076;28;20223;-81
2024/03/01 07:36:41;;;;;;;6.93;3.67;;;;;5.80;99776.00;;;;10376520;28;20872;-84
2024/03/01 07:41:42;;;;;;;11.93;4.90;;;;;6.00;99786.00;;;;10364234;28;20693;-82
2024/03/01 07:46:43;;;;;;;9.13;4.97;;;;;6.20;99795.00;;;;10377014;28;20222;-81
2024/03/01 07:51:44;;;;;;;12.07;4.53;;;;;6.40;99788.00;;;;10371747;28;20230;-83
2024/03/01 07:56:45;;;;;;;10.13;4.40;;;;;6.60;99785.00;;;;10373941;28;20218;-78
2024/03/01 08:01:47;;;;;;;9.47;3.40;;;;;6.80;99807.00;;;;10397916;28;20296;-78
2024/03/01 08:06:48;;;;;;;8.50;3.17;;;;;6.90;99783.00;;;;10379005;28;20240;-75
2024/03/01 08:11:49;;;;;;;5.23;3.53;;;;;7.10;99780.00;;;;10382479;28;20226;-76
2024/03/01 08:16:52;;;;;;;10.97;3.30;;;;;7.30;99773.00;;;;10410874;28;20695;-77
2024/03/01 08:22:10;;;;;;;5.23;2.57;;;;;7.60;99777.00;;;;10409416;28;20227;-77
2024/03/01 08:27:14;;;;;;;9.57;2.50;;;;;7.50;99772.00;;;;10384723;28;20218;-76
2024/03/01 08:32:18;;;;;;;5.50;2.33;;;;;7.70;99768.00;;;;10348831;28;20215;-77
2024/03/01 08:37:24;;;;;;;6.03;1.93;;;;;8.00;99752.00;;;;10384879;28;20258;-77
2024/03/01 08:42:33;;;;;;;8.30;2.20;;;;;8.30;99736.00;;;;10375460;28;20541;-78
2024/03/01 08:47:39;;;;;;;4.40;1.70;;;;;8.60;99741.00;;;;10371716;28;20234;-77
2024/03/01 08:52:40;;;;;;;8.17;1.63;;;;;8.50;99738.00;;;;10382630;28;20222;-76
2024/03/01 08:57:41;;;;;;;2.43;2.00;;;;;9.20;99737.00;;;;10374459;28;20223;-76
2024/03/01 09:02:48;;;;;;;4.27;1.30;;;;;9.30;99734.00;;;;10375772;28;20246;-77
2024/03/01 09:07:49;;;;;;;9.53;1.50;;;;;9.60;99723.00;;;;10383287;28;20243;-81
2024/03/01 09:12:51;;;;;;;2.60;1.30;;;;;9.70;99722.00;;;;10359171;28;20249;-81
2024/03/01 09:17:54;;;;;;;7.70;2.00;;;;;9.90;99722.00;;;;10414837;28;20213;-80
2024/03/01 09:22:55;;;;;;;8.33;1.90;;;;;10.20;99717.00;;;;10444135;28;20230;-81
2024/03/01 09:27:56;;;;;;;9.50;1.70;;;;;10.20;99702.00;;;;10386217;28;20310;-81
2024/03/01 09:32:57;;;;;;;5.83;1.77;;;;;10.40;99685.00;;;;10396222;28;20241;-81
2024/03/01 09:38:01;;;;;;;4.50;2.00;;;;;11.10;99676.00;;;;10392503;28;20554;-82
2024/03/01 09:43:25;;;;;;;6.40;1.90;;;;;11.30;99657.00;;;;10399294;28;20237;-81
2024/03/01 09:48:59;;;;;;;4.37;1.50;;;;;11.00;99641.00;;;;10353957;28;20221;-81
2024/03/01 09:54:13;;;;;;;6.05;1.70;;;;;11.30;99624.00;;;;10380839;28;20581;-80
2024/03/01 09:59:40;;;;;;;3.85;1.17;;;;;11.50;99599.00;;;;10390457;28;20230;-81
2024/03/01 10:05:22;;;;;;;3.33;1.13;;;;;11.60;99583.00;;;;10396175;28;20253;-80
2024/03/01 10:10:33;;;;;;;2.55;1.38;;;;;11.70;99578.00;;;;10390027;28;20218;-79
2024/03/01 10:15:41;;;;;;;3.00;1.10;;;;;11.20;99566.00;;;;10392922;28;20211;-82
2024/03/01 10:21:18;;;;;;;3.42;0.90;;;;;12.00;99564.00;;;;10400341;28;20850;-81
2024/03/01 10:26:27;;;;;;;3.20;1.00;;;;;12.50;99571.00;;;;10376579;28;20301;-82
2024/03/01 10:31:34;;;;;;;2.65;1.10;;;;;12.40;99568.00;;;;10401758;28;20222;-81
2024/03/01 10:36:43;;;;;;;5.57;1.20;;;;;12.50;99538.00;;;;10398797;28;20218;-81
2024/03/01 10:42:20;;;;;;;2.28;0.85;;;;;13.00;99536.00;;;;10371812;28;20222;-81
2024/03/01 10:47:28;;;;;;;2.80;1.25;;;;;13.40;99532.00;;;;10349683;28;20234;-81
2024/03/01 10:52:35;;;;;;;3.08;1.00;;;;;13.70;99520.00;;;;10372885;28;20298;-81
2024/03/01 10:57:42;;;;;;;3.25;1.15;;;;;12.80;99499.00;;;;10394151;28;20313;-80
2024/03/01 11:02:54;;;;;;;3.07;0.80;;;;;11.70;99524.00;;;;10367191;28;20804;-81
2024/03/01 11:08:11;;;;;;;3.40;1.10;;;;;11.60;99492.00;;;;10368284;28;20221;-80
2024/03/01 11:13:17;;;;;;;2.50;1.00;;;;;11.60;99491.00;;;;10392130;28;20222;-80
2024/03/01 11:18:23;;;;;;;8.40;0.90;;;;;11.40;99475.00;;;;10376615;28;20327;-81
2024/03/01 11:23:29;;;;;;;4.13;1.23;;;;;11.80;99479.00;;;;10364568;28;20246;-82
2024/03/01 11:28:32;;;;;;;6.07;1.27;;;;;12.30;99465.00;;;;10385398;28;20230;-82
2024/03/01 11:33:39;;;;;;;3.77;1.00;;;;;12.60;99470.00;;;;10386695;28;20223;-81
2024/03/01 11:38:51;;;;;;;3.17;0.83;;;;;12.30;99457.00;;;;10395854;28;20867;-83
2024/03/01 11:44:08;;;;;;;2.60;1.43;;;;;12.50;99458.00;;;;10395549;28;20337;-81
2024/03/01 11:49:43;;;;;;;2.93;0.90;;;;;12.00;99466.00;;;;10378743;28;20218;-82
2024/03/01 11:54:59;;;;;;;4.50;0.90;;;;;11.60;99461.00;;;;10366969;28;20211;-83
2024/03/01 12:00:13;;;;;;;3.43;0.80;;;;;11.70;99460.00;;;;10394409;28;20272;-83
2024/03/01 12:05:24;;;;;;;2.20;0.80;;;;;11.40;99458.00;;;;10356369;28;20240;-81
2024/03/01 12:10:44;;;;;;;2.33;0.90;;;;;11.40;99459.00;;;;10387304;28;20219;-81
2024/03/01 12:15:48;;;;;;;3.63;0.80;;;;;11.60;99456.00;;;;10387289;28;20218;-81
2024/03/01 12:21:12;;;;;;;4.03;1.33;;;;;11.80;99447.00;;;;10378677;28;20297;-82
2024/03/01 12:26:16;;;;;;;4.73;1.23;;;;;11.90;99450.00;;;;10403071;28;20222;-82
2024/03/01 12:31:34;;;;;;;3.30;0.80;;;;;11.50;99454.00;;;;10368559;28;20303;-81
2024/03/01 12:37:01;;;;;;;4.03;0.90;;;;;11.50;99453.00;;;;10368970;28;20443;-79
2024/03/01 12:42:22;;;;;;;5.37;1.60;;;;;11.30;99440.00;;;;10363685;28;20222;-79
2024/03/01 12:47:43;;;;;;;4.57;1.40;;;;;11.30;99433.00;;;;10345826;28;20219;-79
2024/03/01 12:53:13;;;;;;;4.60;1.67;;;;;11.50;99434.00;;;;10367856;28;20220;-79
2024/03/01 12:58:50;;;;;;;3.10;1.07;;;;;11.50;99425.00;;;;10373594;28;20234;-79
2024/03/01 13:04:28;;;;;;;6.53;1.50;;;;;11.60;99433.00;;;;10358179;28;20870;-81
2024/03/01 13:09:39;;;;;;;11.07;1.83;;;;;12.30;99401.00;;;;10360052;28;20819;-80
2024/03/01 13:14:50;;;;;;;4.77;1.07;;;;;12.30;99425.00;;;;10349577;28;20993;-78
2024/03/01 13:20:19;;;;;;;6.53;1.27;;;;;12.00;99414.00;;;;10404587;28;20230;-78
2024/03/01 13:25:48;;;;;;;4.20;1.03;;;;;11.70;99419.00;;;;10370568;28;20237;-78
2024/03/01 13:30:50;;;;;;;3.57;0.80;;;;;12.20;99410.00;;;;10361758;28;20244;-77
2024/03/01 13:36:02;;;;;;;7.33;2.03;;;;;11.60;99422.00;;;;10374879;28;20250;-78
2024/03/01 13:41:15;;;;;;;7.07;1.23;;;;;11.00;99413.00;;;;10357479;28;20234;-78
2024/03/01 13:46:25;;;;;;;5.23;1.30;;;;;10.70;99427.00;;;;10391888;28;20322;-83
2024/03/01 13:51:27;;;;;;;6.63;1.47;;;;;10.50;99430.00;;;;10369795;28;20581;-83
2024/03/01 13:56:29;;;;;;;3.77;1.40;;;;;10.50;99423.00;;;;10387868;28;20314;-83
2024/03/01 14:01:31;;;;;;;3.80;1.07;;;;;10.40;99417.00;;;;10383986;28;20220;-81
2024/03/01 14:06:32;;;;;;;7.57;1.47;;;;;10.60;99407.00;;;;10386747;28;20234;-83
2024/03/01 14:11:33;;;;;;;4.60;1.17;;;;;10.60;99402.00;;;;10375534;28;20219;-82
2024/03/01 14:16:35;;;;;;;2.57;1.13;;;;;10.50;99398.00;;;;10376754;28;20226;-81
2024/03/01 14:21:36;;;;;;;5.77;1.47;;;;;10.30;99405.00;;;;10356016;28;20230;-81
2024/03/01 14:26:37;;;;;;;6.40;1.23;;;;;10.10;99392.00;;;;10395521;28;20215;-80
2024/03/01 14:31:59;;;;;;;5.17;0.93;;;;;10.00;99410.00;;;;10366918;28;20232;-82
2024/03/01 14:37:01;;;;;;;4.90;0.97;;;;;10.00;99411.00;;;;10396177;28;20282;-80
2024/03/01 14:42:02;;;;;;;7.10;1.63;;;;;10.00;99412.00;;;;10357202;28;20215;-81
2024/03/01 14:47:12;;;;;;;7.93;1.37;;;;;10.00;99406.00;;;;10372977;28;20218;-82
2024/03/01 14:52:13;;;;;;;7.20;1.30;;;;;9.90;99402.00;;;;10373493;28;20723;-82
2024/03/01 14:57:16;;;;;;;6.27;1.50;;;;;9.90;99407.00;;;;10381625;28;20226;-83
2024/03/01 15:02:17;;;;;;;3.87;1.20;;;;;9.90;99401.00;;;;10364272;28;20310;-83
2024/03/01 15:07:19;;;;;;;3.00;0.90;;;;;9.90;99402.00;;;;10385636;28;20219;-82
2024/03/01 15:12:20;;;;;;;4.93;2.07;;;;;10.00;99402.00;;;;10377842;28;20451;-84
2024/03/01 15:17:26;;;;;;;8.47;1.70;;;;;9.90;99400.00;;;;10391886;28;20218;-83
2024/03/01 15:22:27;;;;;;;8.47;1.43;;;;;10.00;99398.00;;;;10380720;28;20717;-84
2024/03/01 15:27:29;;;;;;;5.23;1.73;;;;;10.30;99402.00;;;;10396709;28;20222;-84
2024/03/01 15:32:31;;;;;;;3.33;1.00;;;;;10.30;99396.00;;;;10367548;28;20267;-84
2024/03/01 15:37:33;;;;;;;5.40;1.60;;;;;10.30;99399.00;;;;10400009;28;20270;-83
2024/03/01 15:42:34;;;;;;;4.50;1.27;;;;;10.10;99397.00;;;;10379999;28;20856;-81
2024/03/01 15:47:35;;;;;;;5.00;1.10;;;;;10.00;99400.00;;;;10366791;28;20887;-84
2024/03/01 15:52:41;;;;;;;2.67;1.00;;;;;10.10;99394.00;;;;10382855;28;20269;-82
2024/03/01 15:57:42;;;;;;;6.93;1.40;;;;;10.20;99395.00;;;;10362410;28;20227;-84
2024/03/01 16:02:44;;;;;;;3.73;1.50;;;;;10.40;99402.00;;;;10392347;28;20262;-85
2024/03/01 16:07:47;;;;;;;2.17;0.90;;;;;10.30;99407.00;;;;10378260;28;20226;-82
2024/03/01 16:12:56;;;;;;;5.00;1.60;;;;;10.10;99404.00;;;;10370043;28;20242;-80
2024/03/01 16:17:59;;;;;;;3.83;1.30;;;;;10.00;99405.00;;;;10378582;28;20371;-82
2024/03/01 16:23:04;;;;;;;4.80;1.33;;;;;9.90;99385.00;;;;10377835;28;20727;-82
2024/03/01 16:28:06;;;;;;;4.77;1.27;;;;;9.80;99389.00;;;;10380350;28;20242;-81
2024/03/01 16:33:13;;;;;;;4.90;1.30;;;;;9.80;99379.00;;;;10374433;28;20294;-81
2024/03/01 16:38:14;;;;;;;3.40;1.20;;;;;9.60;99386.00;;;;10383748;28;20223;-82
2024/03/01 16:43:47;;;;;;;2.83;1.20;;;;;9.50;99383.00;;;;10350660;28;20772;-80
2024/03/01 16:48:52;;;;;;;5.80;1.30;;;;;9.30;99379.00;;;;10360760;28;20261;-80
2024/03/01 16:53:53;;;;;;;5.03;1.33;;;;;9.20;99390.00;;;;10371262;28;20823;-82
2024/03/01 16:58:55;;;;;;;3.83;1.07;;;;;9.20;99399.00;;;;10358165;28;20210;-81
2024/03/01 17:03:56;;;;;;;3.67;1.23;;;;;9.10;99399.00;;;;10375111;28;20232;-81
2024/03/01 17:08:57;;;;;;;6.87;1.60;;;;;9.00;99399.00;;;;10351884;28;20226;-82
2024/03/01 17:14:00;;;;;;;3.50;1.30;;;;;8.90;99397.00;;;;10366358;28;20237;-80
2024/03/01 17:19:02;;;;;;;6.17;2.13;;;;;8.70;99384.00;;;;10360743;28;20254;-83
2024/03/01 17:24:03;;;;;;;6.07;1.77;;;;;8.70;99386.00;;;;10332176;28;20227;-82
2024/03/01 17:29:04;;;;;;;5.23;1.67;;;;;8.80;99382.00;;;;10351304;28;20222;-83
2024/03/01 17:34:06;;;;;;;6.77;1.87;;;;;8.90;99380.00;;;;10348659;28;20257;-82
2024/03/01 17:39:07;;;;;;;10.60;1.57;;;;;8.90;99382.00;;;;10389456;28;20952;-83
2024/03/01 17:44:08;;;;;;;6.77;2.03;;;;;8.90;99372.00;;;;10362422;28;20210;-84
2024/03/01 17:49:09;;;;;;;6.70;1.70;;;;;8.90;99364.00;;;;10336363;28;20211;-84
2024/03/01 17:54:11;;;;;;;4.87;1.60;;;;;8.80;99372.00;;;;10360794;28;20226;-83
2024/03/01 17:59:12;;;;;;;6.47;1.30;;;;;8.80;99371.00;;;;10356874;28;20305;-84
2024/03/01 18:04:13;;;;;;;3.50;1.57;;;;;8.80;99371.00;;;;10366840;28;20229;-84
2024/03/01 18:09:14;;;;;;;5.60;2.13;;;;;8.70;99375.00;;;;10400606;28;20249;-81
2024/03/01 18:14:15;;;;;;;6.07;1.83;;;;;8.80;99369.00;;;;10409815;28;20237;-83
2024/03/01 18:19:16;;;;;;;4.67;1.93;;;;;8.80;99369.00;;;;10366270;28;20317;-84
2024/03/01 18:24:18;;;;;;;5.67;2.40;;;;;8.80;99373.00;;;;10384096;28;20223;-83
2024/03/01 18:29:19;;;;;;;4.47;1.70;;;;;8.80;99369.00;;;;10386775;28;20233;-81
2024/03/01 18:34:20;;;;;;;8.43;1.97;;;;;8.80;99359.00;;;;10399672;28;20321;-82
2024/03/01 18:39:21;;;;;;;4.77;2.20;;;;;8.70;99346.00;;;;10361369;28;20342;-81
2024/03/01 18:44:22;;;;;;;9.10;3.43;;;;;8.70;99338.00;;;;10360002;28;20313;-80
2024/03/01 18:49:23;;;;;;;3.17;1.47;;;;;8.60;99327.00;;;;10358567;28;20226;-82
2024/03/01 18:54:24;;;;;;;4.57;1.30;;;;;8.60;99331.00;;;;10343729;28;20233;-82
2024/03/01 18:59:26;;;;;;;2.30;1.30;;;;;8.50;99317.00;;;;10353108;28;20692;-81
2024/03/01 19:04:27;;;;;;;2.70;1.27;;;;;8.40;99323.00;;;;10349793;28;20331;-82
2024/03/01 19:09:28;;;;;;;4.37;1.70;;;;;8.50;99308.00;;;;10359018;28;20307;-80
2024/03/01 19:14:29;;;;;;;3.53;1.80;;;;;8.50;99288.00;;;;10378315;28;20827;-82
2024/03/01 19:19:30;;;;;;;2.67;1.33;;;;;8.50;99268.00;;;;10388227;28;20681;-82
2024/03/01 19:24:32;;;;;;;4.40;1.20;;;;;8.50;99278.00;;;;10376734;28;20223;-81
2024/03/01 19:29:33;;;;;;;5.20;1.03;;;;;8.40;99261.00;;;;10360119;28;20297;-82
2024/03/01 19:34:35;;;;;;;4.70;1.37;;;;;8.30;99251.00;;;;10345763;28;20764;-81
2024/03/01 19:39:36;;;;;;;1.90;1.10;;;;;8.40;99241.00;;;;10373525;28;20356;-81
2024/03/01 19:44:38;;;;;;;4.80;1.60;;;;;8.50;99254.00;;;;10367202;28;20691;-81
2024/03/01 19:49:41;;;;;;;3.53;1.77;;;;;8.60;99237.00;;;;10366175;28;20313;-82
2024/03/01 19:54:42;;;;;;;3.20;1.07;;;;;8.70;99237.00;;;;10361378;28;20226;-82
2024/03/01 19:59:43;;;;;;;5.40;1.20;;;;;8.70;99220.00;;;;10375829;28;20249;-82
2024/03/01 20:04:44;;;;;;;5.47;1.63;;;;;8.70;99221.00;;;;10374809;28;20226;-82
2024/03/01 20:09:47;;;;;;;3.77;1.23;;;;;8.80;99198.00;;;;10356204;28;20234;-82
2024/03/01 20:14:48;;;;;;;6.17;2.00;;;;;8.80;99189.00;;;;10371726;28;20219;-82
2024/03/01 20:19:49;;;;;;;7.43;1.90;;;;;8.90;99178.00;;;;10370260;28;20229;-81
2024/03/01 20:24:51;;;;;;;3.77;1.00;;;;;9.00;99173.00;;;;10349942;28;20250;-83
2024/03/01 20:29:52;;;;;;;2.60;1.10;;;;;9.10;99160.00;;;;10362101;28;20301;-82
2024/03/01 20:34:53;;;;;;;3.57;1.57;;;;;9.20;99147.00;;;;10361720;28;20246;-82
2024/03/01 20:39:55;;;;;;;5.40;1.30;;;;;9.20;99153.00;;;;10357358;28;20227;-81
2024/03/01 20:44:56;;;;;;;6.33;1.73;;;;;9.30;99144.00;;;;10374265;28;20301;-82
2024/03/01 20:49:57;;;;;;;4.00;1.33;;;;;9.30;99130.00;;;;10370951;28;20246;-87
2024/03/01 20:55:03;;;;;;;3.70;1.60;;;;;9.30;99128.00;;;;10360878;28;20250;-84
2024/03/01 21:00:05;;;;;;;1.67;1.07;;;;;9.40;99114.00;;;;10376432;28;20211;-84
2024/03/01 21:05:07;;;;;;;7.13;1.30;;;;;9.40;99107.00;;;;10416636;28;20222;-83
2024/03/01 21:10:09;;;;;;;8.47;1.90;;;;;9.40;99105.00;;;;10371001;28;20313;-86
2024/03/01 21:15:10;;;;;;;1.93;1.00;;;;;9.40;99117.00;;;;10325243;28;20875;-86
2024/03/01 21:20:12;;;;;;;4.53;1.30;;;;;9.50;99114.00;;;;10349203;28;20323;-85
2024/03/01 21:25:13;;;;;;;2.67;1.23;;;;;9.50;99087.00;;;;10356285;28;20310;-85
2024/03/01 21:30:14;;;;;;;2.47;1.00;;;;;9.50;99099.00;;;;10373117;28;20227;-83
2024/03/01 21:35:16;;;;;;;4.67;1.17;;;;;9.50;99101.00;;;;10394105;28;20237;-86
2024/03/01 21:40:20;;;;;;;4.77;1.83;;;;;9.50;99099.00;;;;10331828;28;20230;-84
2024/03/01 21:45:21;;;;;;;2.57;0.73;;;;;9.50;99095.00;;;;10390743;28;20253;-84
2024/03/01 21:50:22;;;;;;;3.90;1.10;;;;;9.50;99087.00;;;;10397501;28;20223;-84
2024/03/01 21:55:24;;;;;;;2.50;1.20;;;;;9.40;99093.00;;;;10357332;28;20227;-84
2024/03/01 22:00:25;;;;;;;3.93;1.00;;;;;9.60;99096.00;;;;10337220;28;20272;-82
2024/03/01 22:05:26;;;;;;;2.80;1.07;;;;;9.60;99083.00;;;;10368778;28;20883;-83
2024/03/01 22:10:27;;;;;;;2.73;0.90;;;;;9.80;99091.00;;;;10356431;28;20228;-82
2024/03/01 22:15:28;;;;;;;3.33;0.97;;;;;9.80;99110.00;;;;10326580;28;20222;-83
2024/03/01 22:20:30;;;;;;;3.20;1.10;;;;;9.70;99145.00;;;;10360433;28;20222;-83
2024/03/01 22:25:31;;;;;;;1.73;0.70;;;;;9.00;99216.00;;;;10348850;28;20243;-81
2024/03/01 22:30:33;;;;;;;0.97;0.60;;;;;7.20;99244.00;;;;10342337;28;20942;-81
2024/03/01 22:35:34;;;;;;;0.97;0.40;;;;;6.40;99260.00;;;;10351939;28;20630;-81
2024/03/01 22:40:35;;;;;;;1.30;0.43;;;;;6.10;99268.00;;;;10338090;28;20776;-80
2024/03/01 22:45:36;;;;;;;0.83;0.30;;;;;6.00;99254.00;;;;10341910;28;20566;-81
2024/03/01 22:50:38;;;;;;;0.40;0.40;;;;;5.90;99272.00;;;;10325877;28;20215;-81
2024/03/01 22:55:44;;;;;;;1.50;0.50;;;;;5.90;99276.00;;;;10357970;28;20226;-81
2024/03/01 23:00:48;;;;;;;0.50;0.50;;;;;5.90;99253.00;;;;10379131;28;20233;-82
2024/03/01 23:05:58;;;;;;;0.37;0.30;;;;;5.80;99230.00;;;;10369711;28;20330;-81
2024/03/01 23:11:01;;;;;;;0.60;0.40;;;;;5.80;99232.00;;;;10404184;28;20223;-86
2024/03/01 23:16:03;;;;;;;0.60;0.40;;;;;5.80;99223.00;;;;10404667;28;20236;-77
2024/03/01 23:21:04;;;;;;;1.50;0.60;;;;;5.80;99231.00;;;;10378510;28;20308;-79
2024/03/01 23:26:05;;;;;;;1.07;0.50;;;;;5.80;99240.00;;;;10358433;28;20308;-80
2024/03/01 23:31:06;;;;;;;1.47;0.70;;;;;5.90;99257.00;;;;10351492;28;20218;-80
2024/03/01 23:36:08;;;;;;;0.40;0.40;;;;;5.90;99266.00;;;;10375258;28;20220;-79
2024/03/01 23:41:10;;;;;;;1.63;0.40;;;;;5.90;99270.00;;;;10366570;28;20842;-80
2024/03/01 23:46:12;;;;;;;2.03;0.73;;;;;5.80;99269.00;;;;10374882;28;20215;-80
2024/03/01 23:51:14;;;;;;;0.70;0.40;;;;;5.80;99283.00;;;;10358556;28;20246;-79
2024/03/01 23:56:18;;;;;;;1.50;0.47;;;;;5.90;99271.00;;;;10383078;28;20219;-79
